Terminal Aerodrome Forecast
Issued by NWS

Home | Current Version | Previous Version | Text Only | Print | Product List | Glossary On
Versions: 1 2 3 4 5 6 7 8 9 10 11 12 13 14 15 16 17 18 19 20
000
FTUS46 KLOX 261745 AAA
TAFLGB
TAF AMD
KLGB 261745Z 2618/2718 VRB03KT P6SM FEW020
     FM262000 20007KT P6SM SKC
     FM270000 29008KT P6SM SKC
     FM270300 VRB03KT P6SM OVC015
     FM270800 VRB03KT P6SM OVC020=

USA.gov is the U.S. government's official web portal to all federal, state and local government web resources and services.